Terminal Aerodrome Forecast
Issued by NWS Burlington, VT

Home | Current Version | Previous Version | Text Only | Print | Product List | Glossary On
Versions: 1 2 3 4 5 6 7 8 9 10 11 12 13 14 15 16
450
FTUS41 KBTV 261739
TAFBTV
TAF
KBTV 261739Z 2618/2718 34008KT P6SM VCSH SCT008 OVC015
     FM270200 34006KT P6SM OVC025
      TEMPO 2707/2711 4SM BR BKN015
     FM271600 33005KT P6SM BKN030=

USA.gov is the U.S. government's official web portal to all federal, state and local government web resources and services.